createdAt,value
2022-12-20T00:01:39.317Z,6.80
2022-12-20T00:04:29.694Z,5.50
2022-12-20T00:07:34.337Z,6.40
2022-12-20T00:10:24.835Z,6.60
2022-12-20T00:13:20.536Z,6.60
2022-12-20T00:16:12.085Z,6.70
2022-12-20T00:19:09.444Z,6.70
2022-12-20T00:22:08.259Z,5.70
2022-12-20T00:25:02.361Z,6.90
2022-12-20T00:27:53.216Z,6.80
2022-12-20T00:30:43.702Z,7.00
2022-12-20T00:33:34.312Z,7.60
2022-12-20T00:36:30.756Z,10.20
2022-12-20T00:39:21.244Z,7.20
2022-12-20T00:42:11.833Z,7.10
2022-12-20T00:45:04.022Z,6.60
2022-12-20T00:47:47.262Z,8.50
2022-12-20T00:50:37.503Z,7.30
2022-12-20T00:53:31.013Z,7.60
2022-12-20T00:56:21.685Z,6.90
2022-12-20T00:59:12.582Z,7.10
2022-12-20T01:02:07.657Z,7.90
2022-12-20T01:05:05.850Z,7.00
2022-12-20T01:07:59.791Z,7.10
2022-12-20T01:11:05.196Z,6.60
2022-12-20T01:16:57.168Z,6.90
2022-12-20T01:19:47.664Z,7.60
2022-12-20T01:22:43.795Z,5.10
2022-12-20T01:28:48.808Z,7.00
2022-12-20T01:31:43.753Z,7.20
2022-12-20T01:34:34.258Z,7.00
2022-12-20T01:37:24.849Z,9.10
2022-12-20T01:40:21.430Z,7.10
2022-12-20T01:43:19.175Z,7.30
2022-12-20T01:51:59.589Z,7.40
2022-12-20T01:54:53.189Z,7.20
2022-12-20T01:57:46.226Z,7.30
2022-12-20T02:00:41.931Z,7.40
2022-12-20T02:03:40.198Z,8.90
2022-12-20T02:06:35.325Z,8.10
2022-12-20T02:09:28.639Z,7.90
2022-12-20T02:12:22.371Z,9.50
2022-12-20T02:15:25.462Z,7.80
2022-12-20T02:21:22.222Z,7.60
2022-12-20T02:24:27.669Z,7.60
2022-12-20T02:27:20.387Z,7.70
2022-12-20T02:30:20.351Z,7.80
2022-12-20T02:33:13.842Z,7.70
2022-12-20T02:38:43.269Z,7.90
2022-12-20T02:41:35.114Z,8.70
2022-12-20T02:44:41.968Z,7.70
2022-12-20T02:47:38.020Z,9.10
2022-12-20T02:50:30.847Z,8.20
2022-12-20T02:53:21.531Z,9.50
2022-12-20T02:56:15.650Z,9.90
2022-12-20T02:59:10.735Z,7.90
2022-12-20T03:02:02.708Z,8.10
2022-12-20T03:04:57.596Z,8.20
2022-12-20T03:07:59.356Z,8.20
2022-12-20T03:10:51.522Z,8.00
2022-12-20T03:13:46.693Z,8.00
2022-12-20T03:16:43.345Z,8.10
2022-12-20T03:19:36.327Z,8.50
2022-12-20T03:22:34.575Z,5.50
2022-12-20T03:25:35.718Z,9.20
2022-12-20T03:28:29.909Z,9.20
2022-12-20T03:31:22.498Z,8.90
2022-12-20T03:34:21.141Z,9.10
2022-12-20T03:37:14.320Z,8.30
2022-12-20T03:40:12.590Z,9.00
2022-12-20T03:43:03.409Z,8.30
2022-12-20T03:45:54.365Z,8.20
2022-12-20T03:48:45.597Z,8.20
2022-12-20T03:51:36.099Z,8.00
2022-12-20T03:54:26.613Z,9.80
2022-12-20T03:57:20.705Z,8.30
2022-12-20T04:00:12.910Z,10.00
2022-12-20T04:03:05.864Z,8.20
2022-12-20T04:05:56.480Z,9.10
2022-12-20T04:08:46.890Z,8.30
2022-12-20T04:11:43.421Z,8.10
2022-12-20T04:14:36.395Z,8.30
2022-12-20T04:17:26.976Z,8.30
2022-12-20T04:20:24.345Z,9.40
2022-12-20T04:23:15.514Z,8.50
2022-12-20T04:26:06.800Z,8.30
2022-12-20T04:28:57.264Z,8.40
2022-12-20T04:31:50.399Z,8.40
2022-12-20T04:34:40.718Z,8.50
2022-12-20T04:37:33.215Z,5.80
2022-12-20T04:40:26.185Z,7.30
2022-12-20T04:43:16.444Z,8.00
2022-12-20T04:46:07.022Z,8.50
2022-12-20T04:49:00.229Z,8.00
2022-12-20T04:51:50.832Z,7.20
2022-12-20T04:54:38.413Z,8.70
2022-12-20T04:57:28.950Z,9.30
2022-12-20T05:00:19.963Z,10.90
2022-12-20T05:03:14.797Z,8.50
2022-12-20T05:06:12.953Z,8.70
2022-12-20T05:09:03.882Z,9.10
2022-12-20T05:11:54.522Z,8.80
2022-12-20T05:14:44.834Z,8.90
2022-12-20T05:17:35.143Z,8.70
2022-12-20T05:20:25.435Z,8.90
2022-12-20T05:23:30.495Z,8.90
2022-12-20T05:26:21.296Z,9.10
2022-12-20T05:29:11.800Z,7.60
2022-12-20T05:32:02.355Z,10.30
2022-12-20T05:34:55.932Z,8.80
2022-12-20T05:37:46.691Z,9.30
2022-12-20T05:40:39.921Z,9.30
2022-12-20T05:43:30.315Z,8.90
2022-12-20T05:46:22.698Z,9.00
2022-12-20T05:49:16.759Z,7.60
2022-12-20T05:52:08.361Z,9.20
2022-12-20T05:55:03.657Z,9.00
2022-12-20T05:57:59.803Z,8.20
2022-12-20T06:00:50.711Z,8.80
2022-12-20T06:03:42.347Z,8.80
2022-12-20T06:09:28.302Z,8.80
2022-12-20T06:12:18.751Z,8.90
2022-12-20T06:15:16.019Z,9.20
2022-12-20T06:18:06.453Z,8.80
2022-12-20T06:20:57.356Z,9.60
2022-12-20T06:23:31.273Z,9.00
2022-12-20T06:26:26.212Z,9.60
2022-12-20T06:29:18.272Z,8.80
2022-12-20T06:32:15.062Z,9.20
2022-12-20T06:35:10.020Z,8.80
2022-12-20T06:38:00.789Z,8.90
2022-12-20T06:40:53.798Z,10.30
2022-12-20T06:43:44.305Z,9.10
2022-12-20T06:46:36.456Z,9.50
2022-12-20T06:49:42.816Z,8.60
2022-12-20T06:52:33.339Z,8.90
2022-12-20T06:55:23.734Z,9.90
2022-12-20T06:58:13.948Z,9.00
2022-12-20T07:01:04.852Z,9.00
2022-12-20T07:03:55.914Z,10.00
2022-12-20T07:06:49.588Z,9.00
2022-12-20T07:12:47.799Z,9.00
2022-12-20T07:18:27.028Z,9.00
2022-12-20T07:21:17.751Z,8.70
2022-12-20T07:24:11.464Z,8.90
2022-12-20T07:27:04.948Z,8.90
2022-12-20T07:29:55.462Z,9.00
2022-12-20T07:32:48.788Z,9.10
2022-12-20T07:35:38.920Z,8.90
2022-12-20T07:38:29.316Z,8.30
2022-12-20T07:41:22.064Z,9.70
2022-12-20T07:44:12.200Z,9.40
2022-12-20T07:47:02.805Z,9.40
2022-12-20T07:49:54.392Z,8.00
2022-12-20T07:53:07.096Z,9.80
2022-12-20T07:59:16.298Z,9.20
2022-12-20T08:02:20.324Z,9.20
2022-12-20T08:08:04.679Z,9.20
2022-12-20T08:11:10.965Z,10.40
2022-12-20T08:14:12.740Z,9.40
2022-12-20T08:17:15.618Z,9.30
2022-12-20T08:23:03.631Z,9.50
2022-12-20T08:26:01.318Z,10.80
2022-12-20T08:29:04.683Z,9.40
2022-12-20T08:32:11.721Z,11.00
2022-12-20T08:35:19.959Z,9.50
2022-12-20T08:38:11.953Z,9.60
2022-12-20T08:43:51.956Z,9.50
2022-12-20T08:46:49.402Z,9.70
2022-12-20T08:49:47.358Z,9.60
2022-12-20T08:52:43.991Z,9.70
2022-12-20T08:55:35.995Z,9.50
2022-12-20T08:58:26.624Z,10.00
2022-12-20T09:01:25.973Z,10.50
2022-12-20T09:04:18.477Z,10.00
2022-12-20T09:07:13.777Z,10.20
2022-12-20T09:15:52.811Z,9.80
2022-12-20T09:18:49.052Z,9.80
2022-12-20T09:21:48.426Z,10.20
2022-12-20T09:24:45.282Z,10.20
2022-12-20T09:27:36.474Z,10.40
2022-12-20T09:30:34.844Z,10.10
2022-12-20T09:33:26.471Z,9.90
2022-12-20T09:39:27.201Z,9.90
2022-12-20T09:42:28.024Z,9.70
2022-12-20T09:45:27.215Z,10.20
2022-12-20T09:48:22.383Z,10.80
2022-12-20T09:51:20.569Z,10.30
2022-12-20T09:54:26.999Z,10.90
2022-12-20T09:57:19.662Z,8.70
2022-12-20T10:00:17.522Z,10.10
2022-12-20T10:03:10.814Z,10.10
2022-12-20T10:06:05.183Z,10.20
2022-12-20T10:09:01.901Z,10.30
2022-12-20T10:15:13.514Z,10.30
2022-12-20T10:18:19.863Z,7.70
2022-12-20T10:21:18.773Z,10.70
2022-12-20T10:24:13.977Z,11.00
2022-12-20T10:27:10.732Z,10.50
2022-12-20T10:30:01.194Z,12.50
2022-12-20T10:35:51.039Z,10.70
2022-12-20T10:38:49.999Z,11.30
2022-12-20T10:44:39.205Z,11.00
2022-12-20T10:53:35.389Z,11.20
2022-12-20T10:56:36.728Z,11.10
2022-12-20T10:59:32.299Z,11.40
2022-12-20T11:05:27.241Z,11.10
2022-12-20T11:11:39.919Z,11.10
2022-12-20T11:17:33.484Z,11.10
2022-12-20T11:20:59.158Z,11.50
2022-12-20T11:23:59.154Z,12.90
2022-12-20T11:27:15.490Z,13.80
2022-12-20T11:30:10.230Z,11.20
2022-12-20T11:33:21.554Z,10.80
2022-12-20T11:36:23.299Z,12.00
2022-12-20T11:39:22.383Z,11.40
2022-12-20T11:42:15.917Z,11.50
2022-12-20T11:45:18.081Z,11.40
2022-12-20T11:48:44.607Z,8.60
2022-12-20T11:54:41.881Z,11.30
2022-12-20T12:00:33.327Z,11.30
2022-12-20T12:03:32.638Z,11.20
2022-12-20T12:06:33.102Z,11.50
2022-12-20T12:15:32.398Z,11.70
2022-12-20T12:24:16.684Z,11.40
2022-12-20T12:27:14.437Z,12.00
2022-12-20T12:30:07.009Z,11.80
2022-12-20T12:33:07.599Z,12.00
2022-12-20T12:36:15.770Z,11.60
2022-12-20T12:39:39.881Z,12.20
2022-12-20T12:42:38.009Z,12.10
2022-12-20T12:51:32.620Z,11.70
2022-12-20T12:54:30.129Z,10.90
2022-12-20T12:57:21.821Z,12.10
2022-12-20T13:00:51.944Z,10.50
2022-12-20T13:06:56.393Z,11.80
2022-12-20T13:10:05.105Z,12.20
2022-12-20T13:13:28.618Z,11.60
2022-12-20T13:35:00.056Z,11.50
2022-12-20T13:57:57.795Z,11.30
2022-12-20T14:34:29.935Z,9.90
2022-12-20T14:40:53.776Z,10.10
2022-12-20T14:44:01.144Z,11.00
2022-12-20T14:47:17.367Z,11.60
2022-12-20T14:50:39.255Z,13.60
2022-12-20T14:53:36.887Z,8.90
2022-12-20T14:56:33.563Z,11.30
2022-12-20T14:59:37.933Z,9.00
2022-12-20T15:02:39.800Z,14.60
2022-12-20T15:05:53.232Z,11.30
2022-12-20T15:23:43.227Z,11.40
2022-12-20T15:26:47.384Z,11.50
2022-12-20T15:32:55.510Z,11.50
2022-12-20T15:47:30.778Z,11.40
2022-12-20T15:50:27.056Z,11.70
2022-12-20T15:53:29.046Z,11.30
2022-12-20T15:56:24.866Z,11.40
2022-12-20T15:59:48.712Z,8.50
2022-12-20T16:02:31.743Z,11.50
2022-12-20T16:05:22.100Z,11.60
2022-12-20T16:11:24.680Z,11.50
2022-12-20T16:14:18.636Z,11.90
2022-12-20T16:17:14.325Z,11.40
2022-12-20T16:23:34.433Z,9.40
2022-12-20T16:26:33.658Z,11.30
2022-12-20T16:29:27.352Z,11.40
2022-12-20T16:32:22.231Z,10.90
2022-12-20T16:38:19.235Z,11.30
2022-12-20T16:41:22.335Z,11.30
2022-12-20T16:44:19.465Z,11.30
2022-12-20T16:47:12.122Z,11.80
2022-12-20T16:50:03.594Z,11.10
2022-12-20T16:52:57.894Z,12.30
2022-12-20T16:55:48.695Z,11.10
2022-12-20T16:59:17.691Z,9.30
2022-12-20T17:02:04.016Z,10.20
2022-12-20T17:07:42.300Z,10.90
2022-12-20T17:10:34.757Z,10.50
2022-12-20T17:13:26.313Z,11.00
2022-12-20T17:16:30.360Z,11.00
2022-12-20T17:19:17.587Z,11.00
2022-12-20T17:25:33.219Z,11.20
2022-12-20T17:28:29.407Z,11.10
2022-12-20T17:31:32.911Z,10.70
2022-12-20T17:39:47.375Z,10.60
2022-12-20T17:42:37.846Z,10.60
2022-12-20T17:45:31.612Z,10.50
2022-12-20T17:48:32.075Z,10.10
2022-12-20T17:51:24.264Z,10.30
2022-12-20T17:54:21.550Z,10.80
2022-12-20T18:00:12.155Z,10.40
2022-12-20T18:03:03.001Z,10.40
2022-12-20T18:06:01.017Z,8.30
2022-12-20T18:09:00.812Z,10.90
2022-12-20T18:12:05.586Z,9.60
2022-12-20T18:17:41.539Z,10.40
2022-12-20T18:20:34.315Z,10.80
2022-12-20T18:26:24.389Z,10.30
2022-12-20T18:29:18.477Z,10.10
2022-12-20T18:32:12.081Z,10.00
2022-12-20T18:35:18.043Z,11.20
2022-12-20T18:38:12.855Z,9.60
2022-12-20T18:41:06.619Z,10.00
2022-12-20T18:49:57.846Z,9.80
2022-12-20T18:58:56.919Z,9.90
2022-12-20T19:02:08.598Z,9.30
